Time;durP1;ratioP1;P1;durP2;ratioP2;P2;SDS_P1;SDS_P2;PMS_P1;PMS_P2;Temp;Humidity;BMP_temperature;BMP_pressure;BME280_temperature;BME280_humidity;BME280_pressure;Samples;Min_cycle;Max_cycle;Signal;HPM_P1;HPM_P2
2024/01/08 00:00:45;;;;;;;1.83;1.30;;;22.10;30.80;;;;;;4947383;28;20070;-52
2024/01/08 00:03:12;;;;;;;1.80;1.20;;;22.10;30.80;;;;;;4947069;28;20047;-53
2024/01/08 00:05:40;;;;;;;2.10;1.10;;;22.10;30.70;;;;;;4949178;28;20496;-56
2024/01/08 00:08:08;;;;;;;1.85;1.20;;;22.00;30.70;;;;;;4950462;28;20066;-56
2024/01/08 00:10:37;;;;;;;1.73;1.15;;;22.00;30.60;;;;;;4950093;28;20519;-58
2024/01/08 00:13:04;;;;;;;1.30;0.90;;;22.00;30.60;;;;;;4945455;28;20058;-58
2024/01/08 00:15:31;;;;;;;1.30;0.88;;;21.90;30.60;;;;;;4942124;28;20059;-57
2024/01/08 00:17:59;;;;;;;1.52;1.00;;;21.90;30.50;;;;;;4952099;28;20066;-57
2024/01/08 00:20:26;;;;;;;0.95;0.70;;;21.90;30.50;;;;;;4945264;28;20506;-58
2024/01/08 00:22:53;;;;;;;2.08;0.77;;;21.90;30.50;;;;;;4945826;28;20051;-57
2024/01/08 00:25:22;;;;;;;1.77;1.10;;;21.80;30.40;;;;;;4944240;28;20484;-58
2024/01/08 00:27:50;;;;;;;5.30;1.20;;;21.80;30.40;;;;;;4943937;28;20046;-58
2024/01/08 00:30:18;;;;;;;1.58;0.98;;;21.80;30.70;;;;;;4942705;28;20043;-58
2024/01/08 00:32:45;;;;;;;1.73;0.80;;;21.80;30.80;;;;;;4946076;28;20565;-56
2024/01/08 00:35:12;;;;;;;2.13;1.05;;;21.70;30.80;;;;;;4943385;28;20047;-54
2024/01/08 00:37:40;;;;;;;1.83;0.90;;;21.80;30.90;;;;;;4947315;28;20055;-60
2024/01/08 00:40:09;;;;;;;1.73;1.00;;;21.80;30.90;;;;;;4945118;28;20066;-58
2024/01/08 00:42:38;;;;;;;6.20;0.93;;;21.80;30.90;;;;;;4940171;28;20397;-57
2024/01/08 00:45:07;;;;;;;2.33;0.80;;;21.90;31.50;;;;;;4946122;28;20051;-49
2024/01/08 00:47:35;;;;;;;8.27;1.25;;;21.90;30.90;;;;;;4946080;28;20408;-53
2024/01/08 00:50:02;;;;;;;8.23;1.27;;;21.90;30.80;;;;;;4945428;28;20051;-55
2024/01/08 00:52:29;;;;;;;2.78;0.80;;;22.00;30.70;;;;;;4941673;28;20059;-55
2024/01/08 00:55:01;;;;;;;2.10;0.80;;;22.00;30.60;;;;;;4944258;28;20047;-55
2024/01/08 00:57:28;;;;;;;9.40;1.10;;;22.10;30.60;;;;;;4943205;28;20047;-56
2024/01/08 00:59:57;;;;;;;10.50;0.93;;;22.10;30.60;;;;;;4944902;28;20519;-56
2024/01/08 01:02:24;;;;;;;1.80;0.68;;;22.10;30.50;;;;;;4945413;28;20062;-57
2024/01/08 01:04:52;;;;;;;6.28;0.90;;;22.20;30.60;;;;;;4948163;28;20432;-56
2024/01/08 01:07:19;;;;;;;1.75;0.70;;;22.20;30.50;;;;;;4949938;28;20066;-57
2024/01/08 01:09:46;;;;;;;0.90;0.65;;;22.20;30.60;;;;;;4949869;28;20476;-54
2024/01/08 01:12:13;;;;;;;2.25;0.60;;;22.20;30.50;;;;;;4950969;28;20047;-51
2024/01/08 01:14:41;;;;;;;1.42;0.80;;;22.20;30.60;;;;;;4943708;28;20063;-52
2024/01/08 01:17:09;;;;;;;0.70;0.50;;;22.10;30.50;;;;;;4934227;29;20055;-57
2024/01/08 01:19:36;;;;;;;1.70;0.73;;;22.10;30.50;;;;;;4930202;29;20059;-57
2024/01/08 01:22:04;;;;;;;0.80;0.50;;;22.10;30.50;;;;;;4936319;29;20051;-53
2024/01/08 01:24:31;;;;;;;0.50;0.50;;;22.10;30.50;;;;;;4936815;29;20428;-53
2024/01/08 01:26:58;;;;;;;0.90;0.57;;;22.10;30.50;;;;;;4938790;29;20051;-57
2024/01/08 01:29:26;;;;;;;0.88;0.47;;;22.10;30.50;;;;;;4938387;29;20059;-58
2024/01/08 01:31:54;;;;;;;0.85;0.52;;;22.10;30.50;;;;;;4934153;29;20055;-54
2024/01/08 01:34:22;;;;;;;0.68;0.47;;;22.10;30.40;;;;;;4924596;29;20051;-57
2024/01/08 01:36:50;;;;;;;1.17;0.50;;;22.00;30.40;;;;;;4929181;29;20059;-56
2024/01/08 01:39:17;;;;;;;0.60;0.30;;;22.00;30.40;;;;;;4931234;29;20055;-55
2024/01/08 01:41:44;;;;;;;0.80;0.50;;;21.90;30.40;;;;;;4928467;29;20051;-57
2024/01/08 01:44:11;;;;;;;0.60;0.45;;;21.90;30.50;;;;;;4926983;29;20489;-56
2024/01/08 01:46:42;;;;;;;0.70;0.40;;;21.80;30.40;;;;;;4929979;29;20059;-54
2024/01/08 01:49:12;;;;;;;1.42;0.57;;;21.80;30.40;;;;;;4931230;29;20597;-54
2024/01/08 01:51:43;;;;;;;1.42;0.60;;;21.80;30.50;;;;;;4929303;29;20609;-53
2024/01/08 01:54:13;;;;;;;0.55;0.45;;;21.80;30.60;;;;;;4925226;29;20416;-56
2024/01/08 01:56:43;;;;;;;0.80;0.60;;;21.80;30.80;;;;;;4926021;29;20540;-56
2024/01/08 01:59:12;;;;;;;0.32;0.32;;;21.80;30.80;;;;;;4926294;29;20499;-57
2024/01/08 02:01:39;;;;;;;0.70;0.45;;;21.80;30.90;;;;;;4929312;29;20048;-53
2024/01/08 02:04:08;;;;;;;0.40;0.30;;;21.90;31.00;;;;;;4934445;29;20059;-55
2024/01/08 02:06:38;;;;;;;0.47;0.45;;;21.80;31.00;;;;;;4927345;29;20055;-56
2024/01/08 02:09:07;;;;;;;1.17;0.50;;;21.90;31.10;;;;;;4937563;29;20062;-57
2024/01/08 02:11:35;;;;;;;1.13;0.50;;;22.00;31.10;;;;;;4927249;29;20063;-58
2024/01/08 02:14:02;;;;;;;0.70;0.55;;;21.90;31.00;;;;;;4937922;28;20071;-58
2024/01/08 02:16:30;;;;;;;0.65;0.40;;;21.90;30.90;;;;;;4946997;28;20051;-57
2024/01/08 02:18:58;;;;;;;0.35;0.35;;;22.00;30.90;;;;;;4946328;28;20055;-57
2024/01/08 02:21:26;;;;;;;1.38;0.50;;;22.00;30.90;;;;;;4946566;28;20058;-48
2024/01/08 02:23:55;;;;;;;1.08;0.57;;;22.00;30.90;;;;;;4946690;28;20063;-57
2024/01/08 02:26:23;;;;;;;0.40;0.40;;;22.00;30.80;;;;;;4944353;28;20503;-58
2024/01/08 02:28:50;;;;;;;0.50;0.30;;;22.00;30.80;;;;;;4947549;28;20051;-53
2024/01/08 02:31:21;;;;;;;0.43;0.40;;;22.00;30.70;;;;;;4943700;28;20051;-55
2024/01/08 02:33:48;;;;;;;0.75;0.40;;;22.00;30.70;;;;;;4941337;28;20059;-56
2024/01/08 02:36:15;;;;;;;1.27;0.50;;;22.00;30.70;;;;;;4946124;28;20047;-54
2024/01/08 02:38:43;;;;;;;0.50;0.43;;;22.00;30.70;;;;;;4942765;28;20066;-55
2024/01/08 02:41:12;;;;;;;0.50;0.43;;;22.00;30.70;;;;;;4950797;28;20061;-54
2024/01/08 02:43:39;;;;;;;0.60;0.40;;;21.90;30.60;;;;;;4945052;28;20054;-55
2024/01/08 02:46:06;;;;;;;3.78;0.50;;;21.90;30.60;;;;;;4946286;28;20540;-54
2024/01/08 02:48:34;;;;;;;0.63;0.50;;;21.90;30.60;;;;;;4949013;28;20054;-54
2024/01/08 02:51:01;;;;;;;0.60;0.47;;;21.90;30.60;;;;;;4949855;28;20054;-56
2024/01/08 02:53:28;;;;;;;0.73;0.50;;;21.80;30.60;;;;;;4949803;28;20061;-55
2024/01/08 02:55:56;;;;;;;0.60;0.40;;;21.80;30.70;;;;;;4947422;28;20055;-52
2024/01/08 02:58:24;;;;;;;0.60;0.50;;;21.80;30.60;;;;;;4947090;28;20065;-52
2024/01/08 03:00:52;;;;;;;0.50;0.50;;;21.70;30.60;;;;;;4947061;28;20499;-56
2024/01/08 03:03:19;;;;;;;0.30;0.30;;;21.70;30.60;;;;;;4944768;28;20409;-56
2024/01/08 03:05:47;;;;;;;0.60;0.50;;;21.70;30.70;;;;;;4946422;28;20519;-56
2024/01/08 03:08:14;;;;;;;0.55;0.50;;;21.70;30.80;;;;;;4957541;28;20053;-54
2024/01/08 03:14:05;;;;;;;1.13;0.55;;;21.70;31.10;;;;;;4946483;28;20046;-57
2024/01/08 03:16:32;;;;;;;0.43;0.43;;;21.70;31.10;;;;;;4944892;28;20059;-49
2024/01/08 03:18:59;;;;;;;5.65;0.60;;;21.70;31.20;;;;;;4939818;28;20051;-51
2024/01/08 03:21:26;;;;;;;17.00;1.02;;;21.80;31.30;;;;;;4948482;28;20117;-54
2024/01/08 03:23:53;;;;;;;2.67;0.60;;;21.80;31.30;;;;;;4947931;28;20051;-53
2024/01/08 03:26:20;;;;;;;1.23;0.88;;;21.80;31.30;;;;;;4947099;28;20051;-54
2024/01/08 03:28:47;;;;;;;1.13;0.75;;;21.90;31.30;;;;;;4948432;28;20051;-53
2024/01/08 03:31:15;;;;;;;0.70;0.50;;;21.90;31.20;;;;;;4949244;28;20066;-52
2024/01/08 03:33:42;;;;;;;0.90;0.70;;;21.90;31.10;;;;;;4945884;28;20051;-54
2024/01/08 03:36:10;;;;;;;1.20;0.80;;;21.90;31.00;;;;;;4945943;28;20055;-54
2024/01/08 03:38:38;;;;;;;1.00;0.70;;;21.90;31.00;;;;;;4946507;28;20482;-57
2024/01/08 03:41:05;;;;;;;2.60;0.77;;;21.90;30.90;;;;;;4943692;28;20141;-53
2024/01/08 03:43:32;;;;;;;1.63;1.08;;;21.90;30.80;;;;;;4948855;28;20055;-56
2024/01/08 03:45:59;;;;;;;0.88;0.70;;;21.90;30.80;;;;;;4947809;28;20495;-56
2024/01/08 03:48:28;;;;;;;1.02;0.90;;;21.90;30.80;;;;;;4947190;28;20411;-55
2024/01/08 03:50:55;;;;;;;1.30;0.93;;;21.90;30.70;;;;;;4948584;28;20608;-57
2024/01/08 03:53:22;;;;;;;1.23;0.90;;;21.90;30.70;;;;;;4945626;28;20506;-57
2024/01/08 03:55:49;;;;;;;1.25;1.02;;;21.90;30.60;;;;;;4944769;28;20055;-57
2024/01/08 03:58:16;;;;;;;1.65;1.10;;;21.90;30.90;;;;;;4946931;28;20066;-52
2024/01/08 04:00:44;;;;;;;1.80;1.13;;;21.90;30.60;;;;;;4948399;28;20055;-56
2024/01/08 04:03:11;;;;;;;4.82;1.40;;;21.80;30.50;;;;;;4946936;28;20043;-55
2024/01/08 04:05:40;;;;;;;1.48;1.02;;;21.80;30.50;;;;;;4945725;28;20062;-48
2024/01/08 04:08:08;;;;;;;1.33;1.23;;;21.80;30.50;;;;;;4943607;28;20051;-57
2024/01/08 04:10:35;;;;;;;1.20;1.10;;;21.70;30.50;;;;;;4942877;28;20054;-58
2024/01/08 04:13:02;;;;;;;1.02;0.98;;;21.70;30.50;;;;;;4947607;28;20055;-57
2024/01/08 04:15:29;;;;;;;1.13;1.00;;;21.70;30.60;;;;;;4947269;28;20067;-55
2024/01/08 04:17:56;;;;;;;1.48;1.13;;;21.70;30.70;;;;;;4941832;28;20048;-54
2024/01/08 04:20:23;;;;;;;1.73;1.02;;;21.70;30.80;;;;;;4945001;28;20062;-57
2024/01/08 04:22:52;;;;;;;2.63;1.40;;;21.70;30.90;;;;;;4940520;28;20484;-56
2024/01/08 04:25:19;;;;;;;1.45;1.20;;;21.70;31.00;;;;;;4943759;28;20796;-56
2024/01/08 04:27:48;;;;;;;2.60;1.10;;;21.70;31.10;;;;;;4946965;28;20059;-54
2024/01/08 04:30:15;;;;;;;1.10;1.00;;;21.80;31.10;;;;;;4947813;28;20051;-58
2024/01/08 04:32:42;;;;;;;1.85;1.10;;;21.80;31.10;;;;;;4948419;28;20050;-52
2024/01/08 04:35:10;;;;;;;3.92;1.15;;;21.80;31.00;;;;;;4950044;28;20066;-57
2024/01/08 04:37:37;;;;;;;1.40;1.27;;;21.90;31.10;;;;;;4945301;28;20500;-54
2024/01/08 04:40:07;;;;;;;1.90;1.33;;;21.90;31.10;;;;;;4946194;28;20456;-56
2024/01/08 04:42:35;;;;;;;1.52;1.17;;;21.90;31.00;;;;;;4946493;28;20066;-57
2024/01/08 04:45:02;;;;;;;1.15;1.05;;;21.90;30.90;;;;;;4945765;28;20044;-57
2024/01/08 04:47:28;;;;;;;1.23;1.13;;;21.90;30.90;;;;;;4949165;28;20511;-56
2024/01/08 04:49:55;;;;;;;1.80;1.13;;;21.90;30.80;;;;;;4945541;28;20047;-54
2024/01/08 04:52:22;;;;;;;1.50;1.10;;;21.90;30.70;;;;;;4944038;28;20052;-54
2024/01/08 04:54:50;;;;;;;2.17;1.23;;;21.90;30.70;;;;;;4950457;28;20393;-50
2024/01/08 04:57:18;;;;;;;1.50;1.27;;;21.90;30.60;;;;;;4944689;28;20419;-53
2024/01/08 04:59:45;;;;;;;1.08;1.00;;;21.90;30.60;;;;;;4947865;28;20420;-53
2024/01/08 05:02:13;;;;;;;1.77;1.27;;;21.90;30.60;;;;;;4949167;28;20508;-52
2024/01/08 05:04:40;;;;;;;1.30;1.20;;;21.80;30.50;;;;;;4950038;28;20051;-54
2024/01/08 05:07:07;;;;;;;1.60;1.42;;;21.90;30.50;;;;;;4944217;28;20066;-54
2024/01/08 05:09:34;;;;;;;2.05;1.38;;;21.80;30.40;;;;;;4945799;28;20066;-53
2024/01/08 05:12:02;;;;;;;1.27;1.10;;;21.80;30.40;;;;;;4945871;28;20043;-53
2024/01/08 05:14:30;;;;;;;1.45;1.20;;;21.80;30.40;;;;;;4941062;28;20062;-51
2024/01/08 05:16:57;;;;;;;1.40;1.30;;;21.70;30.40;;;;;;4941715;28;20054;-55
2024/01/08 05:19:24;;;;;;;1.67;1.33;;;21.70;30.40;;;;;;4947402;28;20059;-52
2024/01/08 05:21:53;;;;;;;1.20;1.10;;;21.70;30.60;;;;;;4945304;28;20491;-52
2024/01/08 05:24:20;;;;;;;1.83;1.25;;;21.70;30.70;;;;;;4943679;28;20059;-54
2024/01/08 05:26:47;;;;;;;1.48;1.10;;;21.70;30.80;;;;;;4945251;28;20051;-52
2024/01/08 05:29:15;;;;;;;1.38;1.10;;;21.70;30.80;;;;;;4946412;28;20058;-53
2024/01/08 05:31:43;;;;;;;1.52;1.10;;;21.70;30.90;;;;;;4944932;28;20055;-52
2024/01/08 05:34:10;;;;;;;2.72;1.20;;;21.80;31.00;;;;;;4945225;28;20059;-54
2024/01/08 05:36:41;;;;;;;3.90;1.30;;;21.80;30.90;;;;;;4945825;28;20062;-54
2024/01/08 05:39:08;;;;;;;2.45;1.40;;;21.80;31.00;;;;;;4940324;28;20052;-51
2024/01/08 05:41:40;;;;;;;7.28;1.25;;;21.90;31.00;;;;;;4942942;28;20055;-53
2024/01/08 05:44:08;;;;;;;3.15;1.25;;;21.90;30.80;;;;;;4946860;28;20496;-51
2024/01/08 05:46:35;;;;;;;6.82;1.40;;;21.90;30.80;;;;;;4944545;28;20439;-53
2024/01/08 05:49:04;;;;;;;1.98;1.25;;;21.90;30.80;;;;;;4947921;28;20384;-52
2024/01/08 05:51:31;;;;;;;1.30;1.20;;;22.00;31.00;;;;;;4946019;28;20547;-54
2024/01/08 05:53:58;;;;;;;2.13;1.08;;;22.00;31.00;;;;;;4948329;28;20043;-52
2024/01/08 05:56:25;;;;;;;14.00;8.70;;;22.00;31.00;;;;;;4949425;28;20055;-53
2024/01/08 05:58:52;;;;;;;33.08;19.75;;;22.10;30.80;;;;;;4947862;28;20523;-55
2024/01/08 06:01:20;;;;;;;23.60;14.52;;;22.10;30.70;;;;;;4946595;28;20067;-51
2024/01/08 06:03:47;;;;;;;16.33;9.75;;;22.20;30.70;;;;;;4950185;28;20047;-51
2024/01/08 06:06:16;;;;;;;16.17;7.35;;;22.20;30.70;;;;;;4948302;28;20716;-52
2024/01/08 06:08:43;;;;;;;10.23;6.28;;;22.20;30.60;;;;;;4952788;28;20077;-55
2024/01/08 06:11:10;;;;;;;10.35;6.00;;;22.20;30.60;;;;;;4947692;28;20078;-52
2024/01/08 06:13:38;;;;;;;7.18;4.57;;;22.20;30.50;;;;;;4948698;28;20412;-53
2024/01/08 06:16:05;;;;;;;7.20;4.85;;;22.20;30.50;;;;;;4949682;28;20051;-53
2024/01/08 06:18:33;;;;;;;6.47;4.47;;;22.20;30.50;;;;;;4939793;28;20055;-53
2024/01/08 06:21:00;;;;;;;6.38;4.07;;;22.20;30.40;;;;;;4950936;28;20484;-47
2024/01/08 06:23:28;;;;;;;5.47;4.18;;;22.20;30.40;;;;;;4946061;28;20439;-54
2024/01/08 06:25:56;;;;;;;5.88;3.60;;;22.20;30.40;;;;;;4945395;28;20106;-53
2024/01/08 06:28:23;;;;;;;4.72;3.47;;;22.20;30.40;;;;;;4950090;28;20059;-54
2024/01/08 06:30:50;;;;;;;7.45;3.95;;;22.20;30.30;;;;;;4946676;28;20066;-50
2024/01/08 06:33:17;;;;;;;8.07;3.42;;;22.10;30.40;;;;;;4950428;28;21225;-52
2024/01/08 06:35:44;;;;;;;6.78;2.85;;;22.10;30.50;;;;;;4947811;28;20062;-52
2024/01/08 06:38:11;;;;;;;6.03;3.38;;;22.10;30.40;;;;;;4946560;28;20047;-54
2024/01/08 06:40:40;;;;;;;5.75;2.97;;;22.00;30.30;;;;;;4943888;28;20047;-53
2024/01/08 06:43:07;;;;;;;6.30;3.03;;;22.00;30.20;;;;;;4946802;28;20054;-53
2024/01/08 06:45:34;;;;;;;4.82;3.13;;;22.00;30.20;;;;;;4952290;28;20058;-53
2024/01/08 06:48:02;;;;;;;4.53;2.90;;;22.00;30.20;;;;;;4947738;28;20062;-50
2024/01/08 06:50:29;;;;;;;65.05;34.80;;;21.90;30.10;;;;;;4947211;28;20062;-54
2024/01/08 06:52:56;;;;;;;87.95;48.58;;;21.80;30.00;;;;;;4950383;28;20051;-52
2024/01/08 06:55:23;;;;;;;48.13;25.67;;;21.80;30.00;;;;;;4947115;28;20051;-53
2024/01/08 06:57:52;;;;;;;25.55;15.90;;;21.80;30.00;;;;;;4951915;28;20118;-54
2024/01/08 07:00:20;;;;;;;21.77;13.00;;;21.70;30.00;;;;;;4950795;28;20415;-55
2024/01/08 07:02:47;;;;;;;18.67;11.32;;;21.70;30.10;;;;;;4946945;28;20058;-52
2024/01/08 07:05:15;;;;;;;15.23;9.30;;;21.70;30.20;;;;;;4945998;28;20063;-53
2024/01/08 07:07:42;;;;;;;15.13;9.50;;;21.60;30.30;;;;;;4949182;28;20488;-53
2024/01/08 07:10:10;;;;;;;13.25;8.45;;;21.70;30.50;;;;;;4951678;28;20411;-55
2024/01/08 07:12:37;;;;;;;13.52;8.65;;;21.60;30.50;;;;;;4949733;28;20063;-52
2024/01/08 07:15:06;;;;;;;12.52;7.72;;;21.70;30.70;;;;;;4944626;28;20075;-52
2024/01/08 07:17:34;;;;;;;32.65;17.83;;;21.70;30.80;;;;;;4946078;28;20066;-51
2024/01/08 07:20:02;;;;;;;81.60;45.30;;;21.70;30.60;;;;;;4951495;28;20522;-52
2024/01/08 07:22:30;;;;;;;66.25;35.83;;;21.70;30.50;;;;;;4948221;28;20416;-54
2024/01/08 07:24:58;;;;;;;41.67;24.83;;;21.80;30.60;;;;;;4948740;28;20543;-54
2024/01/08 07:27:26;;;;;;;38.45;22.52;;;21.80;30.60;;;;;;4949837;28;20393;-53
2024/01/08 07:29:53;;;;;;;37.45;18.23;;;21.80;30.60;;;;;;4942327;28;20063;-52
2024/01/08 07:32:22;;;;;;;29.92;15.75;;;21.80;30.70;;;;;;4947633;28;20055;-54
2024/01/08 07:34:49;;;;;;;22.48;13.75;;;21.80;30.80;;;;;;4947194;28;20526;-51
2024/01/08 07:37:16;;;;;;;26.17;13.20;;;21.90;30.80;;;;;;4949559;28;20064;-49
2024/01/08 07:39:43;;;;;;;20.60;11.27;;;21.90;30.80;;;;;;4947102;28;20389;-53
2024/01/08 07:42:10;;;;;;;17.90;11.20;;;21.90;30.80;;;;;;4950233;28;20420;-54
2024/01/08 07:44:38;;;;;;;19.30;11.65;;;21.90;30.80;;;;;;4948391;28;20058;-54
2024/01/08 07:47:05;;;;;;;18.35;11.40;;;21.90;30.70;;;;;;4946198;28;20054;-51
2024/01/08 07:49:33;;;;;;;19.10;9.63;;;22.00;30.80;;;;;;4945370;28;20055;-53
2024/01/08 07:52:01;;;;;;;18.05;9.93;;;22.00;30.70;;;;;;4947699;28;20066;-54
2024/01/08 07:54:28;;;;;;;18.08;9.07;;;22.00;30.60;;;;;;4948308;28;20058;-53
2024/01/08 07:56:55;;;;;;;16.05;8.85;;;22.00;30.60;;;;;;4947644;28;20082;-53
2024/01/08 07:59:22;;;;;;;13.15;8.43;;;22.10;30.60;;;;;;4944520;28;20492;-53
2024/01/08 08:01:50;;;;;;;11.55;7.30;;;22.10;30.50;;;;;;4947932;28;20050;-54
2024/01/08 08:04:17;;;;;;;12.18;6.70;;;22.10;30.50;;;;;;4948180;28;20137;-55
2024/01/08 08:06:45;;;;;;;9.23;6.22;;;22.10;30.40;;;;;;4970191;28;20061;-53
2024/01/08 08:09:13;;;;;;;11.30;6.20;;;22.10;30.40;;;;;;4966312;28;20066;-55
2024/01/08 08:11:40;;;;;;;11.02;6.60;;;22.10;30.30;;;;;;4965697;28;20050;-54
2024/01/08 08:14:07;;;;;;;9.13;6.05;;;22.00;30.30;;;;;;4965030;28;20070;-53
2024/01/08 08:16:34;;;;;;;8.63;5.93;;;22.00;30.30;;;;;;4965483;28;20521;-52
2024/01/08 08:19:02;;;;;;;7.72;5.43;;;22.00;30.30;;;;;;4969623;28;20059;-54
2024/01/08 08:21:32;;;;;;;8.38;5.55;;;22.00;30.30;;;;;;4964276;28;20059;-57
2024/01/08 08:24:03;;;;;;;8.43;5.65;;;21.90;30.20;;;;;;4964530;28;20058;-55
2024/01/08 08:26:31;;;;;;;6.95;4.68;;;21.90;30.20;;;;;;4967134;28;20062;-54
2024/01/08 08:28:58;;;;;;;7.65;4.95;;;21.90;30.20;;;;;;4964002;28;20055;-55
2024/01/08 08:31:26;;;;;;;8.85;5.00;;;21.90;30.80;;;;;;4966829;28;20054;-50
2024/01/08 08:33:53;;;;;;;7.57;4.50;;;21.90;30.40;;;;;;4966901;28;20419;-54
2024/01/08 08:36:20;;;;;;;7.50;4.20;;;21.80;30.60;;;;;;4964298;28;20065;-55
2024/01/08 08:38:47;;;;;;;8.75;4.88;;;21.80;30.60;;;;;;4969355;28;20064;-54
2024/01/08 08:41:16;;;;;;;6.30;4.10;;;21.80;30.80;;;;;;4965054;28;20050;-55
2024/01/08 08:43:43;;;;;;;9.30;4.05;;;21.90;30.90;;;;;;4961165;28;20058;-54
2024/01/08 08:46:10;;;;;;;9.10;3.55;;;21.90;31.10;;;;;;4968312;28;20087;-54
2024/01/08 09:29:57;;;;;;;21.00;9.48;;;21.90;30.60;;;;;;5734862;23;20035;-58
2024/01/08 11:54:06;;;;;;;28.30;3.05;;;21.80;30.10;;;;;;4977861;23;20059;-62
2024/01/08 11:56:34;;;;;;;14.95;2.13;;;21.80;29.90;;;;;;4949343;29;20054;-62
2024/01/08 11:59:02;;;;;;;18.55;2.50;;;21.70;29.90;;;;;;4949946;29;20054;-62
2024/01/08 12:01:30;;;;;;;17.48;2.65;;;21.70;29.80;;;;;;4950998;29;20055;-62
2024/01/08 12:03:59;;;;;;;27.98;2.97;;;21.70;29.90;;;;;;4945579;28;20062;-61
2024/01/08 12:06:26;;;;;;;24.52;3.30;;;21.70;30.00;;;;;;4943356;28;20058;-61
2024/01/08 12:08:54;;;;;;;16.00;2.50;;;21.70;30.00;;;;;;4948229;29;20440;-61
2024/01/08 12:11:25;;;;;;;12.10;2.20;;;21.80;30.00;;;;;;4949464;29;20050;-62
2024/01/08 12:13:52;;;;;;;5.45;1.85;;;21.70;29.90;;;;;;4944301;29;20060;-61
2024/01/08 12:16:20;;;;;;;7.85;2.22;;;21.80;29.90;;;;;;4925087;29;20059;-61
2024/01/08 12:18:48;;;;;;;7.25;1.83;;;21.80;29.90;;;;;;4926240;29;20437;-60
2024/01/08 12:21:15;;;;;;;8.55;2.10;;;21.90;29.90;;;;;;4932764;29;20416;-59
2024/01/08 12:23:43;;;;;;;7.38;2.10;;;21.90;30.20;;;;;;4925140;29;20067;-59
2024/01/08 12:26:10;;;;;;;8.15;2.03;;;21.90;29.80;;;;;;4924656;29;20396;-59
2024/01/08 12:28:42;;;;;;;4.60;1.85;;;21.90;29.80;;;;;;4933103;29;20055;-59
2024/01/08 12:31:10;;;;;;;4.40;1.67;;;21.90;29.70;;;;;;4928112;29;20047;-59
2024/01/08 12:33:37;;;;;;;4.70;1.83;;;21.90;29.70;;;;;;4922272;29;20060;-59
2024/01/08 12:36:05;;;;;;;4.63;1.92;;;22.00;29.70;;;;;;4925819;29;20062;-60
2024/01/08 12:38:32;;;;;;;10.90;3.90;;;21.90;29.60;;;;;;4930929;29;20063;-59
2024/01/08 12:40:59;;;;;;;9.73;5.75;;;21.90;28.20;;;;;;4923699;29;20058;-59
2024/01/08 12:43:27;;;;;;;16.13;6.43;;;21.90;27.60;;;;;;4922357;29;20060;-58
2024/01/08 12:45:55;;;;;;;11.95;4.25;;;21.80;28.00;;;;;;4931506;29;20051;-59
2024/01/08 12:48:22;;;;;;;5.43;2.58;;;21.80;28.40;;;;;;4929144;29;20404;-60
2024/01/08 12:50:50;;;;;;;4.63;2.78;;;21.70;28.70;;;;;;4926621;29;20051;-59
2024/01/08 12:53:17;;;;;;;4.00;2.53;;;21.70;28.90;;;;;;4924762;29;20509;-60
2024/01/08 12:55:45;;;;;;;7.22;2.78;;;21.70;29.00;;;;;;4929276;29;20048;-59
2024/01/08 12:58:12;;;;;;;9.40;2.80;;;21.60;29.10;;;;;;4933898;29;20047;-59
2024/01/08 13:00:39;;;;;;;4.32;2.50;;;21.60;29.10;;;;;;4929602;29;20055;-58
2024/01/08 13:03:08;;;;;;;6.50;2.30;;;21.60;29.20;;;;;;4937488;29;20500;-58
2024/01/08 13:05:35;;;;;;;4.07;2.15;;;21.50;29.30;;;;;;4927786;29;20059;-59
2024/01/08 13:08:03;;;;;;;3.60;2.38;;;21.50;29.30;;;;;;4934360;29;20048;-58
2024/01/08 13:10:30;;;;;;;4.53;2.70;;;21.50;29.30;;;;;;4926091;29;20067;-58
2024/01/08 13:12:57;;;;;;;3.95;2.15;;;21.50;29.30;;;;;;4932398;29;20055;-60
2024/01/08 13:15:24;;;;;;;2.80;2.08;;;21.60;29.50;;;;;;4932778;29;20504;-59
2024/01/08 13:17:52;;;;;;;4.05;2.28;;;21.60;29.50;;;;;;4927613;29;20055;-59
2024/01/08 13:20:20;;;;;;;8.55;2.60;;;21.60;29.30;;;;;;4931313;29;20483;-60
2024/01/08 13:22:47;;;;;;;9.93;2.65;;;21.60;29.30;;;;;;4927408;29;20059;-60
2024/01/08 13:25:15;;;;;;;6.47;2.22;;;21.70;29.40;;;;;;4926726;29;20048;-59
2024/01/08 13:27:42;;;;;;;11.73;2.33;;;21.70;29.40;;;;;;4932334;29;20436;-60
2024/01/08 13:30:10;;;;;;;3.53;2.03;;;21.70;29.30;;;;;;4923523;29;20052;-59
2024/01/08 13:32:38;;;;;;;3.00;2.13;;;21.70;29.20;;;;;;4931423;29;20063;-59
2024/01/08 13:35:06;;;;;;;7.45;2.42;;;21.70;29.20;;;;;;4927426;29;20048;-61
2024/01/08 13:37:34;;;;;;;7.70;1.88;;;21.70;29.10;;;;;;4929863;29;20067;-60
2024/01/08 13:40:03;;;;;;;3.53;1.85;;;21.70;29.10;;;;;;4931487;29;20059;-59
2024/01/08 13:42:30;;;;;;;3.95;1.80;;;21.70;29.00;;;;;;4929493;29;20060;-60
2024/01/08 13:44:57;;;;;;;5.50;2.20;;;21.70;29.00;;;;;;4926991;29;20492;-60
2024/01/08 13:47:25;;;;;;;11.35;2.30;;;21.70;29.00;;;;;;4933037;29;20060;-60
2024/01/08 13:49:52;;;;;;;3.53;1.98;;;21.70;28.90;;;;;;4933708;29;20374;-60
2024/01/08 13:52:19;;;;;;;4.28;2.00;;;21.70;28.90;;;;;;4925785;29;20056;-58
2024/01/08 13:54:48;;;;;;;4.65;2.30;;;21.60;28.90;;;;;;4926921;29;20059;-57
2024/01/08 13:57:15;;;;;;;2.45;1.75;;;21.60;28.80;;;;;;4925180;29;20052;-58
2024/01/08 13:59:42;;;;;;;4.35;2.22;;;21.60;28.80;;;;;;4930341;29;20066;-59
2024/01/08 14:02:12;;;;;;;4.45;2.20;;;21.60;28.80;;;;;;4928017;29;20071;-58
2024/01/08 14:04:40;;;;;;;8.57;2.10;;;21.60;28.70;;;;;;4930174;29;20047;-58
2024/01/08 14:07:07;;;;;;;7.32;3.05;;;21.50;28.80;;;;;;4925180;29;20052;-58
2024/01/08 14:09:34;;;;;;;68.85;39.53;;;21.50;28.70;;;;;;4930957;29;20054;-61
2024/01/08 14:12:03;;;;;;;82.88;46.38;;;21.50;28.10;;;;;;4926659;29;20048;-58
2024/01/08 14:14:33;;;;;;;53.42;31.15;;;21.50;27.90;;;;;;4924844;29;20066;-59
2024/01/08 14:17:00;;;;;;;19.10;12.57;;;21.50;27.90;;;;;;4927127;29;20070;-58
2024/01/08 14:19:28;;;;;;;10.70;7.28;;;21.50;26.90;;;;;;4927940;29;20152;-59
2024/01/08 14:21:55;;;;;;;9.60;5.95;;;21.50;26.10;;;;;;4927684;29;20051;-58
2024/01/08 14:24:22;;;;;;;18.83;7.25;;;21.50;25.90;;;;;;4930796;29;20063;-57
2024/01/08 14:26:49;;;;;;;18.48;6.93;;;21.40;26.20;;;;;;4920636;29;20075;-60
2024/01/08 14:29:18;;;;;;;29.63;7.78;;;21.40;26.70;;;;;;4920248;29;20519;-61
2024/01/08 14:31:45;;;;;;;18.95;7.13;;;21.40;27.10;;;;;;4931178;29;20058;-59
2024/01/08 14:34:12;;;;;;;13.77;6.40;;;21.40;27.40;;;;;;4928272;29;20056;-59
2024/01/08 14:36:40;;;;;;;23.02;6.57;;;21.40;27.50;;;;;;4924213;29;20063;-58
2024/01/08 14:39:07;;;;;;;22.15;6.50;;;21.40;27.70;;;;;;4930533;29;20048;-59
2024/01/08 14:41:34;;;;;;;12.63;5.75;;;21.50;27.90;;;;;;4925745;29;20066;-59
2024/01/08 14:44:01;;;;;;;17.48;6.25;;;21.50;28.00;;;;;;4928192;29;20315;-59
2024/01/08 14:46:30;;;;;;;11.15;5.35;;;21.50;28.20;;;;;;4928247;29;20056;-59
2024/01/08 14:48:57;;;;;;;16.63;5.68;;;21.50;28.30;;;;;;4926451;29;20059;-59
2024/01/08 14:51:24;;;;;;;13.68;5.13;;;21.60;28.40;;;;;;4925111;29;20048;-59
2024/01/08 14:53:51;;;;;;;8.98;4.78;;;21.60;28.40;;;;;;4930780;29;20515;-59
2024/01/08 14:56:18;;;;;;;21.63;4.78;;;21.70;28.50;;;;;;4932499;29;20048;-58
2024/01/08 14:58:45;;;;;;;16.55;5.38;;;21.70;28.60;;;;;;4926483;29;20051;-58
2024/01/08 15:01:13;;;;;;;10.50;4.47;;;21.70;28.70;;;;;;4931802;29;20521;-57
2024/01/08 15:03:43;;;;;;;13.27;4.13;;;21.70;28.70;;;;;;4928654;29;20055;-58
2024/01/08 15:06:10;;;;;;;109.47;58.92;;;21.70;28.70;;;;;;4933300;29;20047;-57
2024/01/08 15:08:39;;;;;;;125.57;72.97;;;21.70;28.10;;;;;;4938413;29;20066;-56
2024/01/08 15:11:07;;;;;;;88.32;52.30;;;21.70;27.80;;;;;;4936311;29;20059;-56
2024/01/08 15:13:35;;;;;;;75.43;38.10;;;21.70;27.80;;;;;;4935087;29;20055;-57
2024/01/08 15:16:05;;;;;;;58.08;33.15;;;21.70;27.90;;;;;;4930063;29;20047;-59
2024/01/08 15:18:32;;;;;;;47.33;26.92;;;21.70;28.00;;;;;;4926705;29;20051;-57
2024/01/08 15:21:02;;;;;;;38.85;23.48;;;21.60;28.00;;;;;;4937811;29;20070;-60
2024/01/08 15:23:29;;;;;;;38.53;23.48;;;21.60;28.00;;;;;;4931177;29;20523;-61
2024/01/08 15:25:57;;;;;;;39.92;22.10;;;21.60;28.10;;;;;;4927846;29;20051;-59
2024/01/08 15:28:24;;;;;;;36.55;20.98;;;21.60;28.10;;;;;;4932876;29;20058;-60
2024/01/08 15:30:53;;;;;;;32.47;20.00;;;21.60;28.10;;;;;;4926977;29;20068;-59
2024/01/08 15:33:20;;;;;;;30.42;19.15;;;21.50;28.10;;;;;;4929063;29;20062;-61
2024/01/08 15:35:48;;;;;;;27.70;17.00;;;21.50;28.20;;;;;;4931075;29;20500;-59
2024/01/08 15:38:16;;;;;;;25.85;16.65;;;21.50;28.30;;;;;;4933870;29;20535;-60
2024/01/08 15:40:44;;;;;;;22.42;14.55;;;21.50;28.40;;;;;;4935669;29;20075;-59
2024/01/08 15:43:11;;;;;;;20.05;12.48;;;21.50;28.50;;;;;;4929145;29;20558;-60
2024/01/08 15:45:38;;;;;;;18.17;11.90;;;21.50;28.50;;;;;;4934682;29;20058;-59
2024/01/08 15:48:06;;;;;;;18.40;11.18;;;21.60;28.60;;;;;;4933281;29;20062;-59
2024/01/08 15:50:33;;;;;;;17.58;11.05;;;21.60;28.80;;;;;;4930499;29;20048;-59